X  ZamknijMetar - Lotnicze dane pogodowe     EPKT Katowice International Airport

Temperatura

24°C Temperatura

10°C Punkt rosy

41% Wilgotność



Wiatr

21 km/h

13 MPH

 6 m/s

11 KTS



240°
WSW
Obecne warunki

Częściowe zachmurzenie Częściowe zachmurzenie
Ciśnienie 1013.92 (hPa) - 29.94 (in)
Widoczność 6.2 (mi) - 10 (km)
Lotnisko
Kod lotniska EPKT

Lokalizacja Katowice International Airport 23 (km)

Metar:
EPKT 031400Z 24011KT 9999 FEW055TCU 24/10 Q1014

Czas: 03-08-2021 16:00